sensor_id;sensor_type;location;lat;lon;timestamp;P1;durP1;ratioP1;P2;durP2;ratioP2
32786;SDS011;19139;49.372;8.580;2023-05-08T00:01:25;0.90;;;0.90;;
32786;SDS011;19139;49.372;8.580;2023-05-08T00:03:52;2.07;;;1.37;;
32786;SDS011;19139;49.372;8.580;2023-05-08T00:06:19;1.87;;;1.00;;
32786;SDS011;19139;49.372;8.580;2023-05-08T00:08:46;1.77;;;1.30;;
32786;SDS011;19139;49.372;8.580;2023-05-08T00:11:12;1.50;;;1.10;;
32786;SDS011;19139;49.372;8.580;2023-05-08T00:13:39;2.20;;;1.20;;
32786;SDS011;19139;49.372;8.580;2023-05-08T00:16:09;2.00;;;1.30;;
32786;SDS011;19139;49.372;8.580;2023-05-08T00:18:38;1.53;;;1.20;;
32786;SDS011;19139;49.372;8.580;2023-05-08T00:21:05;1.13;;;1.00;;
32786;SDS011;19139;49.372;8.580;2023-05-08T00:23:32;1.47;;;1.20;;
32786;SDS011;19139;49.372;8.580;2023-05-08T00:25:59;1.33;;;1.20;;
32786;SDS011;19139;49.372;8.580;2023-05-08T00:28:26;2.30;;;1.10;;
32786;SDS011;19139;49.372;8.580;2023-05-08T00:30:53;1.70;;;1.20;;
32786;SDS011;19139;49.372;8.580;2023-05-08T00:33:20;1.70;;;1.10;;
32786;SDS011;19139;49.372;8.580;2023-05-08T00:35:46;2.80;;;1.20;;
32786;SDS011;19139;49.372;8.580;2023-05-08T00:38:13;2.73;;;1.30;;
32786;SDS011;19139;49.372;8.580;2023-05-08T00:40:40;2.00;;;1.37;;
32786;SDS011;19139;49.372;8.580;2023-05-08T00:43:08;1.27;;;1.17;;
32786;SDS011;19139;49.372;8.580;2023-05-08T00:45:35;3.03;;;1.50;;
32786;SDS011;19139;49.372;8.580;2023-05-08T00:48:04;1.50;;;1.27;;
32786;SDS011;19139;49.372;8.580;2023-05-08T00:50:32;1.10;;;1.07;;
32786;SDS011;19139;49.372;8.580;2023-05-08T00:53:01;1.53;;;1.33;;
32786;SDS011;19139;49.372;8.580;2023-05-08T00:55:30;1.57;;;0.87;;
32786;SDS011;19139;49.372;8.580;2023-05-08T00:57:57;2.10;;;1.30;;
32786;SDS011;19139;49.372;8.580;2023-05-08T01:00:25;2.67;;;1.20;;
32786;SDS011;19139;49.372;8.580;2023-05-08T01:02:52;1.77;;;1.10;;
32786;SDS011;19139;49.372;8.580;2023-05-08T01:05:19;2.30;;;1.40;;
32786;SDS011;19139;49.372;8.580;2023-05-08T01:07:46;1.30;;;1.17;;
32786;SDS011;19139;49.372;8.580;2023-05-08T01:10:12;1.83;;;1.50;;
32786;SDS011;19139;49.372;8.580;2023-05-08T01:15:17;1.07;;;0.97;;
32786;SDS011;19139;49.372;8.580;2023-05-08T01:26:13;1.40;;;0.90;;
32786;SDS011;19139;49.372;8.580;2023-05-08T01:31:50;1.30;;;1.10;;
32786;SDS011;19139;49.372;8.580;2023-05-08T01:34:32;1.27;;;1.17;;
32786;SDS011;19139;49.372;8.580;2023-05-08T01:37:01;1.93;;;1.17;;
32786;SDS011;19139;49.372;8.580;2023-05-08T01:43:07;1.90;;;1.30;;
32786;SDS011;19139;49.372;8.580;2023-05-08T01:45:18;2.07;;;1.20;;
32786;SDS011;19139;49.372;8.580;2023-05-08T01:47:59;1.30;;;0.90;;
32786;SDS011;19139;49.372;8.580;2023-05-08T01:50:45;1.50;;;1.40;;
32786;SDS011;19139;49.372;8.580;2023-05-08T01:53:25;2.00;;;1.20;;
32786;SDS011;19139;49.372;8.580;2023-05-08T01:55:57;2.40;;;1.13;;
32786;SDS011;19139;49.372;8.580;2023-05-08T01:58:28;1.40;;;1.13;;
32786;SDS011;19139;49.372;8.580;2023-05-08T02:00:57;1.30;;;1.07;;
32786;SDS011;19139;49.372;8.580;2023-05-08T02:03:32;0.90;;;0.80;;
32786;SDS011;19139;49.372;8.580;2023-05-08T02:06:00;1.90;;;1.27;;
32786;SDS011;19139;49.372;8.580;2023-05-08T02:08:28;1.40;;;1.30;;
32786;SDS011;19139;49.372;8.580;2023-05-08T02:10:55;2.33;;;1.73;;
32786;SDS011;19139;49.372;8.580;2023-05-08T02:13:24;1.43;;;1.20;;
32786;SDS011;19139;49.372;8.580;2023-05-08T02:15:54;1.33;;;1.13;;
32786;SDS011;19139;49.372;8.580;2023-05-08T02:18:22;1.30;;;1.20;;
32786;SDS011;19139;49.372;8.580;2023-05-08T02:20:51;1.33;;;1.10;;
32786;SDS011;19139;49.372;8.580;2023-05-08T02:23:19;1.47;;;1.00;;
32786;SDS011;19139;49.372;8.580;2023-05-08T02:25:50;1.20;;;0.97;;
32786;SDS011;19139;49.372;8.580;2023-05-08T02:28:18;1.37;;;1.10;;
32786;SDS011;19139;49.372;8.580;2023-05-08T02:30:46;1.50;;;1.40;;
32786;SDS011;19139;49.372;8.580;2023-05-08T02:33:14;1.00;;;0.90;;
32786;SDS011;19139;49.372;8.580;2023-05-08T02:35:43;2.00;;;1.10;;
32786;SDS011;19139;49.372;8.580;2023-05-08T02:38:12;1.57;;;0.90;;
32786;SDS011;19139;49.372;8.580;2023-05-08T02:40:41;1.30;;;1.00;;
32786;SDS011;19139;49.372;8.580;2023-05-08T02:43:14;1.33;;;0.90;;
32786;SDS011;19139;49.372;8.580;2023-05-08T02:45:45;1.30;;;1.10;;
32786;SDS011;19139;49.372;8.580;2023-05-08T02:48:37;1.20;;;1.10;;
32786;SDS011;19139;49.372;8.580;2023-05-08T02:53:58;1.80;;;1.07;;
32786;SDS011;19139;49.372;8.580;2023-05-08T02:57:17;2.03;;;0.90;;
32786;SDS011;19139;49.372;8.580;2023-05-08T02:59:58;1.40;;;1.20;;
32786;SDS011;19139;49.372;8.580;2023-05-08T03:02:34;1.07;;;0.90;;
32786;SDS011;19139;49.372;8.580;2023-05-08T03:05:07;1.67;;;1.27;;
32786;SDS011;19139;49.372;8.580;2023-05-08T03:07:46;1.50;;;0.90;;
32786;SDS011;19139;49.372;8.580;2023-05-08T03:10:15;1.03;;;0.93;;
32786;SDS011;19139;49.372;8.580;2023-05-08T03:12:45;1.10;;;1.00;;
32786;SDS011;19139;49.372;8.580;2023-05-08T03:17:59;1.97;;;1.40;;
32786;SDS011;19139;49.372;8.580;2023-05-08T03:20:34;1.23;;;1.13;;
32786;SDS011;19139;49.372;8.580;2023-05-08T03:23:03;1.27;;;1.00;;
32786;SDS011;19139;49.372;8.580;2023-05-08T03:25:33;1.60;;;1.50;;
32786;SDS011;19139;49.372;8.580;2023-05-08T03:28:01;1.83;;;1.40;;
32786;SDS011;19139;49.372;8.580;2023-05-08T03:30:30;1.57;;;1.00;;
32786;SDS011;19139;49.372;8.580;2023-05-08T03:32:57;1.07;;;0.90;;
32786;SDS011;19139;49.372;8.580;2023-05-08T03:35:24;1.50;;;1.07;;
32786;SDS011;19139;49.372;8.580;2023-05-08T03:37:53;2.00;;;0.87;;
32786;SDS011;19139;49.372;8.580;2023-05-08T03:40:20;1.53;;;1.33;;
32786;SDS011;19139;49.372;8.580;2023-05-08T03:42:47;1.90;;;1.20;;
32786;SDS011;19139;49.372;8.580;2023-05-08T03:45:14;0.80;;;0.80;;
32786;SDS011;19139;49.372;8.580;2023-05-08T03:47:42;0.87;;;0.87;;
32786;SDS011;19139;49.372;8.580;2023-05-08T03:50:09;1.40;;;1.10;;
32786;SDS011;19139;49.372;8.580;2023-05-08T03:52:37;1.27;;;1.10;;
32786;SDS011;19139;49.372;8.580;2023-05-08T03:55:04;1.70;;;1.00;;
32786;SDS011;19139;49.372;8.580;2023-05-08T03:57:33;1.20;;;1.10;;
32786;SDS011;19139;49.372;8.580;2023-05-08T04:00:11;1.63;;;1.10;;
32786;SDS011;19139;49.372;8.580;2023-05-08T04:03:03;1.40;;;1.13;;
32786;SDS011;19139;49.372;8.580;2023-05-08T04:06:06;1.23;;;1.00;;
32786;SDS011;19139;49.372;8.580;2023-05-08T04:09:16;1.10;;;1.00;;
32786;SDS011;19139;49.372;8.580;2023-05-08T04:11:47;1.20;;;1.00;;
32786;SDS011;19139;49.372;8.580;2023-05-08T04:14:55;1.27;;;1.00;;
32786;SDS011;19139;49.372;8.580;2023-05-08T04:17:38;1.63;;;0.90;;
32786;SDS011;19139;49.372;8.580;2023-05-08T04:20:10;1.43;;;1.10;;
32786;SDS011;19139;49.372;8.580;2023-05-08T04:22:39;1.07;;;0.87;;
32786;SDS011;19139;49.372;8.580;2023-05-08T04:25:10;1.97;;;1.10;;
32786;SDS011;19139;49.372;8.580;2023-05-08T04:27:40;1.43;;;0.70;;
32786;SDS011;19139;49.372;8.580;2023-05-08T04:30:09;1.10;;;1.00;;
32786;SDS011;19139;49.372;8.580;2023-05-08T04:32:36;2.10;;;0.90;;
32786;SDS011;19139;49.372;8.580;2023-05-08T04:35:07;0.97;;;0.80;;
32786;SDS011;19139;49.372;8.580;2023-05-08T04:37:34;1.70;;;0.87;;
32786;SDS011;19139;49.372;8.580;2023-05-08T04:40:01;1.30;;;0.70;;
32786;SDS011;19139;49.372;8.580;2023-05-08T04:42:29;0.80;;;0.60;;
32786;SDS011;19139;49.372;8.580;2023-05-08T04:44:56;1.13;;;0.87;;
32786;SDS011;19139;49.372;8.580;2023-05-08T04:47:22;1.17;;;1.07;;
32786;SDS011;19139;49.372;8.580;2023-05-08T04:49:49;1.67;;;1.20;;
32786;SDS011;19139;49.372;8.580;2023-05-08T04:52:16;1.33;;;1.13;;
32786;SDS011;19139;49.372;8.580;2023-05-08T04:54:43;0.90;;;0.80;;
32786;SDS011;19139;49.372;8.580;2023-05-08T04:57:09;2.87;;;1.07;;
32786;SDS011;19139;49.372;8.580;2023-05-08T04:59:36;1.43;;;1.00;;
32786;SDS011;19139;49.372;8.580;2023-05-08T05:02:03;1.33;;;1.23;;
32786;SDS011;19139;49.372;8.580;2023-05-08T05:04:33;1.40;;;0.97;;
32786;SDS011;19139;49.372;8.580;2023-05-08T05:07:02;1.67;;;0.87;;
32786;SDS011;19139;49.372;8.580;2023-05-08T05:09:29;1.30;;;1.20;;
32786;SDS011;19139;49.372;8.580;2023-05-08T05:11:56;0.90;;;0.90;;
32786;SDS011;19139;49.372;8.580;2023-05-08T05:14:22;1.17;;;1.07;;
32786;SDS011;19139;49.372;8.580;2023-05-08T05:16:49;0.80;;;0.80;;
32786;SDS011;19139;49.372;8.580;2023-05-08T05:19:16;1.40;;;1.30;;
32786;SDS011;19139;49.372;8.580;2023-05-08T05:21:43;1.10;;;0.77;;
32786;SDS011;19139;49.372;8.580;2023-05-08T05:24:13;1.20;;;0.90;;
32786;SDS011;19139;49.372;8.580;2023-05-08T05:26:40;2.00;;;1.20;;
32786;SDS011;19139;49.372;8.580;2023-05-08T05:29:07;1.20;;;0.90;;
32786;SDS011;19139;49.372;8.580;2023-05-08T05:31:34;1.67;;;1.00;;
32786;SDS011;19139;49.372;8.580;2023-05-08T05:34:00;1.20;;;1.00;;
32786;SDS011;19139;49.372;8.580;2023-05-08T05:36:27;1.33;;;1.23;;
32786;SDS011;19139;49.372;8.580;2023-05-08T05:38:54;0.90;;;0.80;;
32786;SDS011;19139;49.372;8.580;2023-05-08T05:41:21;1.73;;;0.93;;
32786;SDS011;19139;49.372;8.580;2023-05-08T05:43:52;1.57;;;0.80;;
32786;SDS011;19139;49.372;8.580;2023-05-08T05:46:19;1.17;;;0.90;;
32786;SDS011;19139;49.372;8.580;2023-05-08T05:48:45;1.40;;;1.30;;
32786;SDS011;19139;49.372;8.580;2023-05-08T05:51:12;1.07;;;0.90;;
32786;SDS011;19139;49.372;8.580;2023-05-08T05:53:39;1.23;;;1.13;;
32786;SDS011;19139;49.372;8.580;2023-05-08T05:56:05;0.90;;;0.90;;
32786;SDS011;19139;49.372;8.580;2023-05-08T05:58:33;2.23;;;1.00;;
32786;SDS011;19139;49.372;8.580;2023-05-08T06:01:00;1.20;;;1.10;;
32786;SDS011;19139;49.372;8.580;2023-05-08T06:03:27;0.97;;;0.97;;
32786;SDS011;19139;49.372;8.580;2023-05-08T06:05:54;1.63;;;1.30;;
32786;SDS011;19139;49.372;8.580;2023-05-08T06:08:21;1.67;;;1.07;;
32786;SDS011;19139;49.372;8.580;2023-05-08T06:10:48;1.30;;;1.20;;
32786;SDS011;19139;49.372;8.580;2023-05-08T06:13:15;1.30;;;1.20;;
32786;SDS011;19139;49.372;8.580;2023-05-08T06:15:42;2.27;;;1.40;;
32786;SDS011;19139;49.372;8.580;2023-05-08T06:18:09;1.93;;;1.30;;
32786;SDS011;19139;49.372;8.580;2023-05-08T06:20:36;1.87;;;1.17;;
32786;SDS011;19139;49.372;8.580;2023-05-08T06:23:04;2.33;;;1.80;;
32786;SDS011;19139;49.372;8.580;2023-05-08T06:25:31;1.20;;;1.00;;
32786;SDS011;19139;49.372;8.580;2023-05-08T06:27:57;1.10;;;0.97;;
32786;SDS011;19139;49.372;8.580;2023-05-08T06:30:24;1.80;;;1.10;;
32786;SDS011;19139;49.372;8.580;2023-05-08T06:32:51;1.87;;;1.13;;
32786;SDS011;19139;49.372;8.580;2023-05-08T06:35:18;1.00;;;0.90;;
32786;SDS011;19139;49.372;8.580;2023-05-08T06:37:45;1.20;;;1.10;;
32786;SDS011;19139;49.372;8.580;2023-05-08T06:40:12;0.80;;;0.80;;
32786;SDS011;19139;49.372;8.580;2023-05-08T06:42:40;1.20;;;1.00;;
32786;SDS011;19139;49.372;8.580;2023-05-08T06:45:07;1.47;;;1.10;;
32786;SDS011;19139;49.372;8.580;2023-05-08T06:47:34;1.60;;;1.27;;
32786;SDS011;19139;49.372;8.580;2023-05-08T06:50:01;4.13;;;2.00;;
32786;SDS011;19139;49.372;8.580;2023-05-08T06:52:28;1.80;;;0.93;;
32786;SDS011;19139;49.372;8.580;2023-05-08T06:54:55;1.50;;;1.10;;
32786;SDS011;19139;49.372;8.580;2023-05-08T06:57:22;1.80;;;0.90;;
32786;SDS011;19139;49.372;8.580;2023-05-08T06:59:52;1.50;;;1.03;;
32786;SDS011;19139;49.372;8.580;2023-05-08T07:02:19;1.90;;;1.07;;
32786;SDS011;19139;49.372;8.580;2023-05-08T07:04:46;1.40;;;1.23;;
32786;SDS011;19139;49.372;8.580;2023-05-08T07:07:13;1.10;;;1.00;;
32786;SDS011;19139;49.372;8.580;2023-05-08T07:09:40;0.90;;;0.90;;
32786;SDS011;19139;49.372;8.580;2023-05-08T07:12:07;1.30;;;1.20;;
32786;SDS011;19139;49.372;8.580;2023-05-08T07:14:34;1.30;;;1.20;;
32786;SDS011;19139;49.372;8.580;2023-05-08T07:17:02;1.13;;;1.00;;
32786;SDS011;19139;49.372;8.580;2023-05-08T07:19:35;1.43;;;1.30;;
32786;SDS011;19139;49.372;8.580;2023-05-08T07:22:03;1.57;;;1.30;;
32786;SDS011;19139;49.372;8.580;2023-05-08T07:24:31;1.27;;;1.17;;
32786;SDS011;19139;49.372;8.580;2023-05-08T07:26:58;1.40;;;1.30;;
32786;SDS011;19139;49.372;8.580;2023-05-08T07:29:26;1.30;;;1.10;;
32786;SDS011;19139;49.372;8.580;2023-05-08T07:31:53;1.33;;;1.23;;
32786;SDS011;19139;49.372;8.580;2023-05-08T07:34:20;2.20;;;1.30;;
32786;SDS011;19139;49.372;8.580;2023-05-08T07:36:46;1.23;;;1.10;;
32786;SDS011;19139;49.372;8.580;2023-05-08T07:39:14;1.20;;;1.10;;
32786;SDS011;19139;49.372;8.580;2023-05-08T07:41:41;1.47;;;1.20;;
32786;SDS011;19139;49.372;8.580;2023-05-08T07:44:08;1.73;;;1.30;;
32786;SDS011;19139;49.372;8.580;2023-05-08T07:46:35;1.70;;;1.40;;
32786;SDS011;19139;49.372;8.580;2023-05-08T07:49:02;2.20;;;1.30;;
32786;SDS011;19139;49.372;8.580;2023-05-08T07:51:29;1.70;;;1.50;;
32786;SDS011;19139;49.372;8.580;2023-05-08T07:53:56;1.53;;;1.20;;
32786;SDS011;19139;49.372;8.580;2023-05-08T07:56:23;1.40;;;1.30;;
32786;SDS011;19139;49.372;8.580;2023-05-08T07:58:50;1.63;;;1.37;;
32786;SDS011;19139;49.372;8.580;2023-05-08T08:01:17;1.70;;;1.30;;
32786;SDS011;19139;49.372;8.580;2023-05-08T08:03:46;1.17;;;1.00;;
32786;SDS011;19139;49.372;8.580;2023-05-08T08:06:13;1.07;;;0.97;;
32786;SDS011;19139;49.372;8.580;2023-05-08T08:08:40;0.87;;;0.83;;
32786;SDS011;19139;49.372;8.580;2023-05-08T08:11:06;2.57;;;1.23;;
32786;SDS011;19139;49.372;8.580;2023-05-08T08:13:33;1.30;;;1.20;;
32786;SDS011;19139;49.372;8.580;2023-05-08T08:16:00;1.53;;;1.43;;
32786;SDS011;19139;49.372;8.580;2023-05-08T08:18:29;1.50;;;1.40;;
32786;SDS011;19139;49.372;8.580;2023-05-08T08:20:58;1.50;;;1.40;;
32786;SDS011;19139;49.372;8.580;2023-05-08T08:23:25;1.33;;;1.23;;
32786;SDS011;19139;49.372;8.580;2023-05-08T08:25:52;1.30;;;1.20;;
32786;SDS011;19139;49.372;8.580;2023-05-08T08:28:19;1.53;;;1.27;;
32786;SDS011;19139;49.372;8.580;2023-05-08T08:30:46;2.37;;;1.60;;
32786;SDS011;19139;49.372;8.580;2023-05-08T08:33:13;1.50;;;1.40;;
32786;SDS011;19139;49.372;8.580;2023-05-08T08:35:42;1.43;;;1.20;;
32786;SDS011;19139;49.372;8.580;2023-05-08T08:38:09;1.70;;;1.50;;
32786;SDS011;19139;49.372;8.580;2023-05-08T08:40:39;1.20;;;1.10;;
32786;SDS011;19139;49.372;8.580;2023-05-08T08:43:07;1.20;;;1.00;;
32786;SDS011;19139;49.372;8.580;2023-05-08T08:45:35;1.27;;;1.17;;
32786;SDS011;19139;49.372;8.580;2023-05-08T08:48:02;1.50;;;1.40;;
32786;SDS011;19139;49.372;8.580;2023-05-08T08:50:30;1.33;;;1.20;;
32786;SDS011;19139;49.372;8.580;2023-05-08T08:53:05;1.10;;;1.00;;
32786;SDS011;19139;49.372;8.580;2023-05-08T08:55:38;1.40;;;1.30;;
32786;SDS011;19139;49.372;8.580;2023-05-08T09:00:57;1.43;;;1.13;;
32786;SDS011;19139;49.372;8.580;2023-05-08T09:03:26;1.63;;;1.53;;
32786;SDS011;19139;49.372;8.580;2023-05-08T09:05:52;1.23;;;1.13;;
32786;SDS011;19139;49.372;8.580;2023-05-08T09:08:25;2.47;;;1.43;;
32786;SDS011;19139;49.372;8.580;2023-05-08T09:10:52;2.00;;;1.80;;
32786;SDS011;19139;49.372;8.580;2023-05-08T09:13:23;1.20;;;1.10;;
32786;SDS011;19139;49.372;8.580;2023-05-08T09:15:50;0.90;;;0.90;;
32786;SDS011;19139;49.372;8.580;2023-05-08T09:18:16;1.90;;;1.50;;
32786;SDS011;19139;49.372;8.580;2023-05-08T09:20:44;1.03;;;1.03;;
32786;SDS011;19139;49.372;8.580;2023-05-08T09:23:11;1.50;;;1.33;;
32786;SDS011;19139;49.372;8.580;2023-05-08T09:25:45;1.43;;;1.33;;
32786;SDS011;19139;49.372;8.580;2023-05-08T09:28:17;1.30;;;1.20;;
32786;SDS011;19139;49.372;8.580;2023-05-08T09:30:49;1.70;;;1.40;;
32786;SDS011;19139;49.372;8.580;2023-05-08T09:33:16;1.70;;;1.30;;
32786;SDS011;19139;49.372;8.580;2023-05-08T09:35:43;1.50;;;1.40;;
32786;SDS011;19139;49.372;8.580;2023-05-08T09:41:12;1.50;;;1.40;;
32786;SDS011;19139;49.372;8.580;2023-05-08T09:43:41;1.77;;;1.47;;
32786;SDS011;19139;49.372;8.580;2023-05-08T09:46:18;1.83;;;1.73;;
32786;SDS011;19139;49.372;8.580;2023-05-08T09:48:49;1.63;;;1.23;;
32786;SDS011;19139;49.372;8.580;2023-05-08T09:51:16;1.47;;;1.30;;
32786;SDS011;19139;49.372;8.580;2023-05-08T09:53:43;1.80;;;1.70;;
32786;SDS011;19139;49.372;8.580;2023-05-08T09:56:10;1.70;;;1.60;;
32786;SDS011;19139;49.372;8.580;2023-05-08T09:58:38;2.20;;;1.90;;
32786;SDS011;19139;49.372;8.580;2023-05-08T10:03:58;1.97;;;1.57;;
32786;SDS011;19139;49.372;8.580;2023-05-08T10:06:25;1.43;;;1.30;;
32786;SDS011;19139;49.372;8.580;2023-05-08T10:09:10;1.47;;;1.37;;
32786;SDS011;19139;49.372;8.580;2023-05-08T10:11:39;1.43;;;1.33;;
32786;SDS011;19139;49.372;8.580;2023-05-08T10:14:07;1.63;;;1.53;;
32786;SDS011;19139;49.372;8.580;2023-05-08T10:16:35;1.80;;;1.53;;
32786;SDS011;19139;49.372;8.580;2023-05-08T10:19:10;2.57;;;1.57;;
32786;SDS011;19139;49.372;8.580;2023-05-08T10:21:39;2.47;;;1.57;;
32786;SDS011;19139;49.372;8.580;2023-05-08T10:24:12;1.63;;;1.53;;
32786;SDS011;19139;49.372;8.580;2023-05-08T10:26:43;1.60;;;1.50;;
32786;SDS011;19139;49.372;8.580;2023-05-08T10:29:33;2.00;;;1.43;;
32786;SDS011;19139;49.372;8.580;2023-05-08T10:32:18;2.87;;;1.47;;
32786;SDS011;19139;49.372;8.580;2023-05-08T10:34:55;1.60;;;1.50;;
32786;SDS011;19139;49.372;8.580;2023-05-08T10:37:24;1.67;;;1.30;;
32786;SDS011;19139;49.372;8.580;2023-05-08T10:39:54;1.57;;;1.47;;
32786;SDS011;19139;49.372;8.580;2023-05-08T10:42:22;2.60;;;1.60;;
32786;SDS011;19139;49.372;8.580;2023-05-08T10:44:50;2.00;;;1.90;;
32786;SDS011;19139;49.372;8.580;2023-05-08T10:47:20;1.93;;;1.83;;
32786;SDS011;19139;49.372;8.580;2023-05-08T10:49:50;1.63;;;1.53;;
32786;SDS011;19139;49.372;8.580;2023-05-08T10:52:43;1.70;;;1.60;;
32786;SDS011;19139;49.372;8.580;2023-05-08T10:55:29;2.00;;;1.73;;
32786;SDS011;19139;49.372;8.580;2023-05-08T10:58:00;2.07;;;1.87;;
32786;SDS011;19139;49.372;8.580;2023-05-08T11:00:33;1.73;;;1.63;;
32786;SDS011;19139;49.372;8.580;2023-05-08T11:03:19;2.57;;;2.10;;
32786;SDS011;19139;49.372;8.580;2023-05-08T11:05:49;2.10;;;1.97;;
32786;SDS011;19139;49.372;8.580;2023-05-08T11:08:17;2.83;;;2.40;;
32786;SDS011;19139;49.372;8.580;2023-05-08T11:13:32;2.30;;;2.07;;
32786;SDS011;19139;49.372;8.580;2023-05-08T11:16:00;2.13;;;1.97;;
32786;SDS011;19139;49.372;8.580;2023-05-08T11:18:28;2.43;;;2.20;;
32786;SDS011;19139;49.372;8.580;2023-05-08T11:21:14;4.43;;;3.00;;
32786;SDS011;19139;49.372;8.580;2023-05-08T11:23:55;3.03;;;2.60;;
32786;SDS011;19139;49.372;8.580;2023-05-08T11:26:37;2.73;;;2.53;;
32786;SDS011;19139;49.372;8.580;2023-05-08T11:29:16;3.00;;;2.67;;
32786;SDS011;19139;49.372;8.580;2023-05-08T11:31:49;2.83;;;2.63;;
32786;SDS011;19139;49.372;8.580;2023-05-08T11:37:10;3.57;;;2.53;;
32786;SDS011;19139;49.372;8.580;2023-05-08T11:39:47;2.60;;;2.40;;
32786;SDS011;19139;49.372;8.580;2023-05-08T11:45:10;2.90;;;2.13;;
32786;SDS011;19139;49.372;8.580;2023-05-08T11:47:42;2.77;;;2.50;;
32786;SDS011;19139;49.372;8.580;2023-05-08T11:50:10;4.07;;;3.00;;
32786;SDS011;19139;49.372;8.580;2023-05-08T11:52:39;3.03;;;2.60;;
32786;SDS011;19139;49.372;8.580;2023-05-08T11:55:08;3.03;;;2.73;;
32786;SDS011;19139;49.372;8.580;2023-05-08T11:57:41;3.60;;;2.10;;
32786;SDS011;19139;49.372;8.580;2023-05-08T12:00:08;3.03;;;2.83;;
32786;SDS011;19139;49.372;8.580;2023-05-08T12:05:05;3.40;;;2.40;;
32786;SDS011;19139;49.372;8.580;2023-05-08T12:07:45;3.07;;;2.70;;
32786;SDS011;19139;49.372;8.580;2023-05-08T12:10:13;3.23;;;2.80;;
32786;SDS011;19139;49.372;8.580;2023-05-08T12:12:41;3.57;;;3.07;;
32786;SDS011;19139;49.372;8.580;2023-05-08T12:15:09;3.60;;;2.67;;
32786;SDS011;19139;49.372;8.580;2023-05-08T12:17:40;2.80;;;2.57;;
32786;SDS011;19139;49.372;8.580;2023-05-08T12:20:08;4.30;;;2.93;;
32786;SDS011;19139;49.372;8.580;2023-05-08T12:22:41;3.83;;;3.10;;
32786;SDS011;19139;49.372;8.580;2023-05-08T12:25:16;4.23;;;3.10;;
32786;SDS011;19139;49.372;8.580;2023-05-08T12:27:44;3.07;;;2.70;;
32786;SDS011;19139;49.372;8.580;2023-05-08T12:37:04;3.63;;;2.90;;
32786;SDS011;19139;49.372;8.580;2023-05-08T12:43:08;4.60;;;3.07;;
32786;SDS011;19139;49.372;8.580;2023-05-08T12:45:36;3.20;;;2.90;;
32786;SDS011;19139;49.372;8.580;2023-05-08T12:48:08;3.80;;;3.33;;
32786;SDS011;19139;49.372;8.580;2023-05-08T12:50:44;3.10;;;2.87;;
32786;SDS011;19139;49.372;8.580;2023-05-08T12:53:19;3.43;;;3.10;;
32786;SDS011;19139;49.372;8.580;2023-05-08T12:56:04;3.77;;;3.37;;
32786;SDS011;19139;49.372;8.580;2023-05-08T12:58:32;3.43;;;3.10;;
32786;SDS011;19139;49.372;8.580;2023-05-08T13:01:25;3.13;;;2.83;;
32786;SDS011;19139;49.372;8.580;2023-05-08T13:11:49;3.40;;;3.10;;
32786;SDS011;19139;49.372;8.580;2023-05-08T13:14:19;3.70;;;3.40;;
32786;SDS011;19139;49.372;8.580;2023-05-08T13:17:48;4.13;;;3.17;;
32786;SDS011;19139;49.372;8.580;2023-05-08T13:24:48;3.10;;;2.90;;
32786;SDS011;19139;49.372;8.580;2023-05-08T13:27:16;3.00;;;2.70;;
32786;SDS011;19139;49.372;8.580;2023-05-08T13:30:07;4.83;;;3.63;;
32786;SDS011;19139;49.372;8.580;2023-05-08T13:39:08;3.77;;;3.47;;
32786;SDS011;19139;49.372;8.580;2023-05-08T13:49:37;3.20;;;3.00;;
32786;SDS011;19139;49.372;8.580;2023-05-08T13:52:27;3.40;;;3.10;;
32786;SDS011;19139;49.372;8.580;2023-05-08T13:54:55;4.07;;;3.57;;
32786;SDS011;19139;49.372;8.580;2023-05-08T13:57:23;3.13;;;2.83;;
32786;SDS011;19139;49.372;8.580;2023-05-08T13:59:51;3.13;;;2.83;;
32786;SDS011;19139;49.372;8.580;2023-05-08T14:02:18;3.70;;;3.40;;
32786;SDS011;19139;49.372;8.580;2023-05-08T14:04:47;3.23;;;2.73;;
32786;SDS011;19139;49.372;8.580;2023-05-08T14:07:17;3.33;;;3.13;;
32786;SDS011;19139;49.372;8.580;2023-05-08T14:09:44;3.30;;;3.10;;
32786;SDS011;19139;49.372;8.580;2023-05-08T14:12:16;2.97;;;2.77;;
32786;SDS011;19139;49.372;8.580;2023-05-08T14:14:43;3.30;;;3.00;;
32786;SDS011;19139;49.372;8.580;2023-05-08T14:17:10;3.70;;;3.40;;
32786;SDS011;19139;49.372;8.580;2023-05-08T14:19:37;3.20;;;2.90;;
32786;SDS011;19139;49.372;8.580;2023-05-08T14:22:03;4.27;;;2.70;;
32786;SDS011;19139;49.372;8.580;2023-05-08T14:24:32;2.63;;;2.30;;
32786;SDS011;19139;49.372;8.580;2023-05-08T14:26:59;2.90;;;2.70;;
32786;SDS011;19139;49.372;8.580;2023-05-08T14:29:29;3.00;;;2.80;;
32786;SDS011;19139;49.372;8.580;2023-05-08T14:31:56;3.00;;;2.80;;
32786;SDS011;19139;49.372;8.580;2023-05-08T14:34:23;3.00;;;2.73;;
32786;SDS011;19139;49.372;8.580;2023-05-08T14:36:50;2.80;;;2.60;;
32786;SDS011;19139;49.372;8.580;2023-05-08T14:39:17;3.17;;;2.93;;
32786;SDS011;19139;49.372;8.580;2023-05-08T14:41:44;3.27;;;2.97;;
32786;SDS011;19139;49.372;8.580;2023-05-08T14:44:31;2.70;;;2.50;;
32786;SDS011;19139;49.372;8.580;2023-05-08T14:46:57;3.00;;;2.80;;
32786;SDS011;19139;49.372;8.580;2023-05-08T14:49:24;2.90;;;2.70;;
32786;SDS011;19139;49.372;8.580;2023-05-08T14:52:15;2.83;;;2.63;;
32786;SDS011;19139;49.372;8.580;2023-05-08T14:54:41;2.70;;;2.43;;
32786;SDS011;19139;49.372;8.580;2023-05-08T14:57:09;3.30;;;3.00;;
32786;SDS011;19139;49.372;8.580;2023-05-08T14:59:35;3.17;;;2.50;;
32786;SDS011;19139;49.372;8.580;2023-05-08T15:02:08;2.83;;;2.53;;
32786;SDS011;19139;49.372;8.580;2023-05-08T15:04:37;2.63;;;2.43;;
32786;SDS011;19139;49.372;8.580;2023-05-08T15:07:07;2.90;;;2.70;;
32786;SDS011;19139;49.372;8.580;2023-05-08T15:09:34;3.00;;;2.80;;
32786;SDS011;19139;49.372;8.580;2023-05-08T15:12:01;2.73;;;2.53;;
32786;SDS011;19139;49.372;8.580;2023-05-08T15:14:28;2.90;;;2.70;;
32786;SDS011;19139;49.372;8.580;2023-05-08T15:16:55;2.97;;;2.77;;
32786;SDS011;19139;49.372;8.580;2023-05-08T15:19:22;2.97;;;2.63;;
32786;SDS011;19139;49.372;8.580;2023-05-08T15:21:51;3.10;;;2.30;;
32786;SDS011;19139;49.372;8.580;2023-05-08T15:28:49;3.00;;;2.80;;
32786;SDS011;19139;49.372;8.580;2023-05-08T15:31:27;2.80;;;2.60;;
32786;SDS011;19139;49.372;8.580;2023-05-08T15:35:10;4.03;;;2.70;;
32786;SDS011;19139;49.372;8.580;2023-05-08T15:37:49;3.20;;;2.90;;
32786;SDS011;19139;49.372;8.580;2023-05-08T15:40:37;3.20;;;2.97;;
32786;SDS011;19139;49.372;8.580;2023-05-08T15:43:19;4.33;;;3.33;;
32786;SDS011;19139;49.372;8.580;2023-05-08T15:46:01;3.47;;;2.97;;
32786;SDS011;19139;49.372;8.580;2023-05-08T15:48:28;3.47;;;2.80;;
32786;SDS011;19139;49.372;8.580;2023-05-08T15:50:54;5.17;;;3.73;;
32786;SDS011;19139;49.372;8.580;2023-05-08T15:53:21;3.47;;;3.17;;
32786;SDS011;19139;49.372;8.580;2023-05-08T15:55:48;3.50;;;3.00;;
32786;SDS011;19139;49.372;8.580;2023-05-08T15:58:15;3.20;;;2.93;;
32786;SDS011;19139;49.372;8.580;2023-05-08T16:00:42;4.47;;;3.23;;
32786;SDS011;19139;49.372;8.580;2023-05-08T16:03:10;4.27;;;3.60;;
32786;SDS011;19139;49.372;8.580;2023-05-08T16:05:37;4.07;;;3.67;;
32786;SDS011;19139;49.372;8.580;2023-05-08T16:08:04;3.80;;;3.47;;
32786;SDS011;19139;49.372;8.580;2023-05-08T16:10:33;4.23;;;3.63;;
32786;SDS011;19139;49.372;8.580;2023-05-08T16:12:59;3.70;;;3.33;;
32786;SDS011;19139;49.372;8.580;2023-05-08T16:15:26;4.40;;;4.00;;
32786;SDS011;19139;49.372;8.580;2023-05-08T16:17:53;6.37;;;3.90;;
32786;SDS011;19139;49.372;8.580;2023-05-08T16:20:20;5.37;;;3.90;;
32786;SDS011;19139;49.372;8.580;2023-05-08T16:22:47;6.07;;;3.30;;
32786;SDS011;19139;49.372;8.580;2023-05-08T16:25:18;4.13;;;3.73;;
32786;SDS011;19139;49.372;8.580;2023-05-08T16:27:45;6.83;;;3.70;;
32786;SDS011;19139;49.372;8.580;2023-05-08T16:30:11;5.23;;;3.87;;
32786;SDS011;19139;49.372;8.580;2023-05-08T16:32:38;4.60;;;3.70;;